Time;durP1;ratioP1;P1;durP2;ratioP2;P2;SDS_P1;SDS_P2;PMS_P1;PMS_P2;Temp;Humidity;BMP_temperature;BMP_pressure;BME280_temperature;BME280_humidity;BME280_pressure;Samples;Min_cycle;Max_cycle;Signal;HPM_P1;HPM_P2
2022/01/19 00:01:38;;;;;;;10.27;4.93;;;;;;;-3.09;62.70;96718.59;5108330;28;20033;-79
2022/01/19 00:04:04;;;;;;;12.77;5.45;;;;;;;-3.16;62.93;96717.13;5106785;28;20076;-79
2022/01/19 00:06:29;;;;;;;9.77;5.32;;;;;;;-3.15;62.55;96717.06;5107632;28;20039;-78
2022/01/19 00:08:55;;;;;;;10.57;4.93;;;;;;;-3.09;62.48;96718.59;5107178;28;20085;-78
2022/01/19 00:11:20;;;;;;;11.82;5.63;;;;;;;-3.01;61.90;96720.91;5105546;28;20494;-78
2022/01/19 00:13:46;;;;;;;15.38;5.00;;;;;;;-2.95;62.03;96730.31;5089172;28;20088;-79
2022/01/19 00:16:11;;;;;;;10.52;5.32;;;;;;;-2.96;62.44;96734.72;5105209;28;20023;-79
2022/01/19 00:18:37;;;;;;;11.95;5.03;;;;;;;-3.08;62.35;96730.81;5089138;28;20514;-78
2022/01/19 00:21:02;;;;;;;13.80;5.18;;;;;;;-3.09;62.11;96741.38;5104881;28;20504;-78
2022/01/19 00:23:27;;;;;;;13.70;6.57;;;;;;;-3.14;62.67;96749.41;5088793;28;20409;-78
2022/01/19 00:25:54;;;;;;;12.48;6.30;;;;;;;-3.26;62.63;96761.25;5105158;28;20124;-79
2022/01/19 00:28:19;;;;;;;14.02;5.85;;;;;;;-3.14;62.59;96747.66;5105596;28;20339;-79
2022/01/19 00:30:45;;;;;;;14.80;5.60;;;;;;;-3.04;62.31;96760.41;5088590;28;20038;-79
2022/01/19 00:33:10;;;;;;;13.95;5.28;;;;;;;-3.13;62.55;96764.25;5088273;28;20038;-78
2022/01/19 00:35:36;;;;;;;10.85;5.03;;;;;;;-3.09;62.08;96750.09;5105257;28;20055;-78
2022/01/19 00:38:02;;;;;;;12.88;5.30;;;;;;;-2.96;62.19;96749.59;5088074;28;20043;-78
2022/01/19 00:40:28;;;;;;;8.13;4.80;;;;;;;-2.91;61.78;96755.53;5106027;28;20050;-78
2022/01/19 00:42:53;;;;;;;11.52;4.97;;;;;;;-2.77;61.25;96754.97;5106176;28;20024;-79
2022/01/19 00:45:19;;;;;;;11.52;5.00;;;;;;;-2.76;60.57;96761.94;5107234;28;20027;-79
2022/01/19 00:47:45;;;;;;;10.23;4.43;;;;;;;-2.70;60.38;96753.81;5088297;28;20463;-79
2022/01/19 00:50:13;;;;;;;10.52;4.68;;;;;;;-2.70;60.36;96766.94;5088659;28;20474;-78
2022/01/19 00:52:39;;;;;;;8.80;4.43;;;;;;;-2.79;60.29;96776.03;5105274;28;20038;-78
2022/01/19 00:55:05;;;;;;;10.15;4.97;;;;;;;-2.88;60.83;96781.66;5106107;28;20024;-77
2022/01/19 00:57:31;;;;;;;13.15;5.47;;;;;;;-2.94;61.62;96782.78;5088807;28;20034;-78
2022/01/19 00:59:56;;;;;;;11.52;5.43;;;;;;;-2.93;61.10;96783.59;5105776;28;20032;-78
2022/01/19 01:02:21;;;;;;;8.98;4.78;;;;;;;-3.02;62.18;96780.44;5107323;28;20024;-78
2022/01/19 01:04:47;;;;;;;12.40;5.55;;;;;;;-3.06;61.79;96791.97;5105707;28;20467;-79
2022/01/19 01:07:12;;;;;;;10.15;5.50;;;;;;;-3.19;62.16;96799.44;5088468;28;20020;-78
2022/01/19 01:09:38;;;;;;;11.93;5.70;;;;;;;-3.06;61.87;96804.25;5106088;28;20020;-78
2022/01/19 01:12:20;;;;;;;10.63;5.18;;;;;;;-3.04;61.35;96799.78;5107465;28;20023;-78
2022/01/19 01:20:14;;;;;;;9.82;4.65;;;;;;;-3.34;63.43;96785.16;5095407;28;20445;-78
2022/01/19 01:22:39;;;;;;;15.13;5.32;;;;;;;-3.24;62.78;96793.53;5108510;28;20489;-79
2022/01/19 01:25:05;;;;;;;9.82;5.07;;;;;;;-3.40;63.28;96796.72;5108886;28;20032;-79
2022/01/19 01:27:31;;;;;;;11.13;4.85;;;;;;;-3.32;63.36;96788.56;5109222;28;20069;-79
2022/01/19 01:29:56;;;;;;;10.48;5.70;;;;;;;-3.26;62.73;96780.47;5091359;28;20028;-78
2022/01/19 01:32:22;;;;;;;11.02;5.28;;;;;;;-3.13;62.61;96778.22;5109530;28;20031;-80
2022/01/19 01:34:47;;;;;;;12.07;5.53;;;;;;;-3.10;62.32;96779.88;5107674;28;20044;-78
2022/01/19 01:37:13;;;;;;;11.80;5.63;;;;;;;-3.08;62.94;96779.81;5110518;28;20028;-78
2022/01/19 01:39:38;;;;;;;10.30;4.97;;;;;;;-2.99;62.43;96771.59;5109413;28;20024;-78
2022/01/19 01:42:14;;;;;;;14.18;5.47;;;;;;;-2.87;62.30;96778.97;5109036;28;20470;-79
2022/01/19 01:44:42;;;;;;;9.35;5.28;;;;;;;-2.75;61.09;96767.13;5092317;28;20042;-78
2022/01/19 01:47:08;;;;;;;13.30;5.40;;;;;;;-3.02;62.08;96763.84;5107954;28;20120;-78
2022/01/19 01:53:16;;;;;;;12.00;5.53;;;;;;;-3.19;62.03;96767.13;5092324;28;20032;-78
2022/01/19 01:55:15;;;;;;;14.05;5.47;;;;;;;-3.21;62.53;96759.31;5109883;28;20058;-77
2022/01/19 01:57:41;;;;;;;10.95;5.28;;;;;;;-3.24;62.20;96762.06;5108447;28;20115;-77
2022/01/19 02:00:08;;;;;;;13.02;5.97;;;;;;;-3.24;61.86;96752.38;5074116;28;20024;-78
2022/01/19 02:02:34;;;;;;;10.50;4.93;;;;;;;-3.40;62.81;96749.50;5092352;28;20023;-78
2022/01/19 02:04:59;;;;;;;9.07;4.90;;;;;;;-3.51;63.44;96735.91;5108824;28;20425;-78
2022/01/19 02:09:59;;;;;;;9.55;4.93;;;;;;;-3.57;63.15;96734.41;5107865;28;20031;-78
2022/01/19 02:23:28;;;;;;;20.35;4.60;;;;;;;-3.62;63.27;96720.59;5093699;28;20429;-78
2022/01/19 02:25:56;;;;;;;7.90;4.32;;;;;;;-3.55;63.00;96715.97;5120664;28;20087;-78
2022/01/19 02:42:06;;;;;;;13.23;4.47;;;;;;;-3.35;62.59;96710.81;5110510;28;20035;-79
2022/01/19 02:49:48;;;;;;;9.45;4.13;;;;;;;-3.51;62.82;96728.91;5108233;28;20054;-78
2022/01/19 02:52:13;;;;;;;8.38;4.18;;;;;;;-3.44;62.88;96724.31;5107696;28;20100;-78
2022/01/19 02:54:39;;;;;;;12.07;5.32;;;;;;;-3.44;62.98;96726.94;5092272;28;20467;-78
2022/01/19 02:57:07;;;;;;;9.15;4.78;;;;;;;-3.53;63.09;96719.41;5108436;28;20494;-78
2022/01/19 02:59:50;;;;;;;7.18;4.55;;;;;;;-3.35;63.24;96720.44;5108869;28;20024;-79
2022/01/19 03:10:27;;;;;;;9.15;4.13;;;;;;;-3.40;63.07;96711.94;5107976;28;20500;-81
2022/01/19 03:12:52;;;;;;;7.82;4.57;;;;;;;-3.37;62.84;96709.19;5090164;28;20031;-78
2022/01/19 03:15:18;;;;;;;11.10;4.70;;;;;;;-3.29;62.63;96708.88;5106677;28;20027;-78
2022/01/19 03:17:44;;;;;;;10.77;4.95;;;;;;;-3.32;62.58;96703.75;5106631;28;20031;-79
2022/01/19 03:20:10;;;;;;;8.85;5.22;;;;;;;-3.32;62.46;96709.00;5107068;28;20039;-78
2022/01/19 03:22:45;;;;;;;11.73;4.88;;;;;;;-3.34;62.57;96709.06;5106153;28;20024;-78
2022/01/19 03:25:12;;;;;;;14.68;5.63;;;;;;;-3.30;61.78;96708.00;5107262;28;20490;-78
2022/01/19 03:27:46;;;;;;;10.98;5.53;;;;;;;-3.24;62.35;96707.78;5089228;28;20031;-77
2022/01/19 03:30:11;;;;;;;10.32;5.32;;;;;;;-3.24;62.13;96713.03;5090973;28;20061;-79
2022/01/19 03:32:37;;;;;;;12.80;4.88;;;;;;;-3.28;62.21;96711.44;5106645;28;20459;-78
2022/01/19 03:35:02;;;;;;;9.13;4.97;;;;;;;-3.33;62.23;96712.53;5105897;28;20042;-79
2022/01/19 03:37:28;;;;;;;8.38;4.88;;;;;;;-3.44;62.33;96728.69;5106691;28;20031;-78
2022/01/19 03:39:53;;;;;;;8.85;5.22;;;;;;;-3.35;61.98;96733.56;5088961;28;20019;-79
2022/01/19 03:42:19;;;;;;;9.77;5.60;;;;;;;-3.51;62.08;96738.53;5106830;28;20020;-78
2022/01/19 03:44:44;;;;;;;12.77;4.70;;;;;;;-3.48;62.22;96735.81;5105840;28;20026;-78
2022/01/19 03:47:10;;;;;;;17.45;5.80;;;;;;;-3.65;62.96;96737.31;5107995;28;20039;-78
2022/01/19 03:49:35;;;;;;;11.90;5.20;;;;;;;-3.56;62.46;96738.72;5105905;28;20504;-79
2022/01/19 03:52:04;;;;;;;8.98;5.63;;;;;;;-3.61;61.97;96732.81;5089093;28;20432;-77
2022/01/19 03:54:32;;;;;;;12.02;5.35;;;;;;;-3.67;61.78;96731.25;5106147;28;20027;-78
2022/01/19 03:56:57;;;;;;;9.52;5.13;;;;;;;-3.81;62.48;96733.53;5105873;28;20106;-78
2022/01/19 03:59:22;;;;;;;12.38;5.70;;;;;;;-3.78;62.42;96725.56;5106408;28;20024;-79
2022/01/19 04:01:51;;;;;;;9.18;4.75;;;;;;;-3.73;62.46;96726.25;5088411;28;20035;-78
2022/01/19 04:09:45;;;;;;;9.32;4.75;;;;;;;-3.73;63.07;96736.72;5043883;28;20032;-77
2022/01/19 04:12:15;;;;;;;7.03;4.47;;;;;;;-3.64;62.55;96733.75;5093128;28;20100;-80
2022/01/19 04:14:41;;;;;;;10.00;4.45;;;;;;;-3.60;62.19;96735.38;5088834;28;20027;-78
2022/01/19 04:17:11;;;;;;;11.07;5.07;;;;;;;-3.76;62.66;96736.84;5106505;28;20034;-79
2022/01/19 04:22:07;;;;;;;9.35;4.82;;;;;;;-3.51;62.36;96747.28;5089566;28;20058;-78
2022/01/19 04:24:33;;;;;;;16.15;5.18;;;;;;;-3.74;63.03;96750.75;5105481;28;20038;-78
2022/01/19 04:27:24;;;;;;;12.95;6.18;;;;;;;-3.66;62.71;96760.97;5105453;28;20028;-77
2022/01/19 04:35:04;;;;;;;12.75;6.07;;;;;;;-3.68;62.89;96771.53;5105791;28;20108;-78
2022/01/19 04:38:42;;;;;;;13.25;6.57;;;;;;;-3.98;64.11;96767.31;5105256;28;20034;-81
2022/01/19 04:49:03;;;;;;;12.75;5.85;;;;;;;-3.90;63.82;96788.00;5105646;28;20034;-78
2022/01/19 05:05:28;;;;;;;14.25;7.10;;;;;;;-3.73;63.49;96786.56;5070897;28;20040;-79
2022/01/19 05:07:59;;;;;;;16.17;7.30;;;;;;;-3.65;63.07;96797.63;5099592;28;20402;-79
2022/01/19 05:15:51;;;;;;;18.25;8.30;;;;;;;-3.76;63.99;96781.41;5078565;28;20032;-77
2022/01/19 05:18:17;;;;;;;20.45;8.43;;;;;;;-3.88;64.27;96785.31;5103780;28;20032;-76
2022/01/19 05:20:45;;;;;;;23.95;9.20;;;;;;;-3.85;64.42;96793.06;5102627;28;20028;-79
2022/01/19 05:23:11;;;;;;;18.20;7.53;;;;;;;-4.05;65.36;96796.41;5102436;28;20061;-79
2022/01/19 05:25:36;;;;;;;15.50;7.80;;;;;;;-3.85;64.71;96808.81;5103428;28;20496;-78
2022/01/19 05:28:02;;;;;;;18.52;7.43;;;;;;;-3.75;64.29;96804.97;5103706;28;20031;-78
2022/01/19 05:30:27;;;;;;;26.33;9.32;;;;;;;-3.85;64.87;96820.16;5105878;28;20475;-78
2022/01/19 05:32:53;;;;;;;26.83;9.90;;;;;;;-3.75;64.78;96814.59;5104822;28;20027;-79
2022/01/19 05:35:18;;;;;;;27.45;9.98;;;;;;;-3.72;64.72;96814.47;5105805;28;20043;-79
2022/01/19 05:37:43;;;;;;;22.58;9.65;;;;;;;-3.86;65.23;96814.97;5101134;28;20036;-79
2022/01/19 05:40:10;;;;;;;16.05;8.00;;;;;;;-3.66;64.59;96814.25;5104879;28;20031;-79
2022/01/19 05:42:36;;;;;;;16.50;7.30;;;;;;;-3.60;64.84;96821.06;5103850;28;20019;-81
2022/01/19 05:45:01;;;;;;;15.05;6.63;;;;;;;-3.70;65.44;96832.78;5096853;28;20100;-80
2022/01/19 05:47:27;;;;;;;12.27;6.53;;;;;;;-3.84;66.33;96828.91;5077483;28;20035;-79
2022/01/19 05:49:52;;;;;;;15.90;6.55;;;;;;;-3.77;65.84;96834.78;5086951;28;20038;-82
2022/01/19 05:52:19;;;;;;;12.43;6.82;;;;;;;-3.73;66.07;96849.50;5092495;28;20097;-80
2022/01/19 05:54:44;;;;;;;16.00;6.28;;;;;;;-3.67;66.19;96851.91;5067104;28;20430;-74
2022/01/19 05:57:10;;;;;;;13.68;6.60;;;;;;;-3.56;65.85;96845.44;5052387;28;20490;-78
2022/01/19 05:59:35;;;;;;;14.60;6.90;;;;;;;-3.58;66.05;96855.09;5105809;28;20043;-77
2022/01/19 06:02:01;;;;;;;12.98;7.38;;;;;;;-3.64;65.84;96859.66;5107887;28;20035;-77
2022/01/19 06:04:26;;;;;;;14.65;6.85;;;;;;;-3.67;66.64;96858.91;5090732;28;20024;-77
2022/01/19 06:06:54;;;;;;;16.58;7.15;;;;;;;-3.53;66.04;96848.78;5108816;28;20034;-77
2022/01/19 06:09:47;;;;;;;15.52;7.25;;;;;;;-3.33;65.70;96847.22;5090064;28;20032;-79
2022/01/19 06:12:13;;;;;;;14.70;7.17;;;;;;;-3.29;65.55;96851.41;5108299;28;20047;-78
2022/01/19 06:14:40;;;;;;;12.88;6.47;;;;;;;-3.17;64.76;96849.25;5091411;28;20791;-78
2022/01/19 06:17:06;;;;;;;13.48;6.50;;;;;;;-3.14;64.64;96865.75;5091006;28;20031;-78
2022/01/19 06:19:31;;;;;;;14.25;7.07;;;;;;;-3.04;65.10;96854.91;5108425;28;20526;-78
2022/01/19 06:21:57;;;;;;;16.98;7.65;;;;;;;-2.93;64.14;96863.25;5108642;28;20027;-79
2022/01/19 06:24:22;;;;;;;13.82;8.02;;;;;;;-2.88;63.61;96865.69;5107610;28;20135;-80
2022/01/19 06:26:48;;;;;;;13.65;7.57;;;;;;;-2.84;63.76;96858.56;5091282;28;20046;-79
2022/01/19 06:29:13;;;;;;;13.63;8.00;;;;;;;-2.62;63.29;96859.44;5107490;28;20077;-79
2022/01/19 06:31:39;;;;;;;17.40;7.35;;;;;;;-2.48;62.33;96858.03;5109851;28;20410;-79
2022/01/19 06:34:04;;;;;;;22.50;8.95;;;;;;;-2.41;62.07;96858.66;5107691;28;20504;-78
2022/01/19 06:36:30;;;;;;;16.60;7.85;;;;;;;-2.45;62.39;96864.97;5090387;28;20124;-79
2022/01/19 06:38:55;;;;;;;18.02;8.60;;;;;;;-2.27;62.02;96866.84;5107747;28;20414;-81
2022/01/19 06:41:21;;;;;;;19.38;8.52;;;;;;;-2.09;61.61;96866.13;5073280;28;20032;-79
2022/01/19 06:43:46;;;;;;;15.15;8.98;;;;;;;-1.91;61.20;96870.66;5108422;28;20032;-79
2022/01/19 06:46:12;;;;;;;19.50;9.15;;;;;;;-1.83;60.71;96874.72;5108352;27;20019;-78
2022/01/19 06:48:37;;;;;;;22.42;10.38;;;;;;;-1.66;60.00;96866.97;5109805;28;20024;-79
2022/01/19 06:51:03;;;;;;;25.80;11.65;;;;;;;-1.59;59.74;96877.22;5107012;28;20027;-79
2022/01/19 06:53:28;;;;;;;24.92;12.18;;;;;;;-1.62;59.47;96868.56;5107725;28;20051;-79
2022/01/19 06:55:57;;;;;;;30.88;12.65;;;;;;;-1.50;59.29;96863.69;5108124;28;20019;-78
2022/01/19 06:58:27;;;;;;;27.63;11.73;;;;;;;-1.28;59.26;96875.91;5107277;28;20038;-78
2022/01/19 07:00:52;;;;;;;23.38;11.23;;;;;;;-1.10;58.76;96878.66;5091039;28;20391;-78
2022/01/19 07:03:18;;;;;;;28.38;13.60;;;;;;;-1.00;59.02;96869.41;5107680;28;20402;-78
2022/01/19 07:05:43;;;;;;;23.73;11.02;;;;;;;-0.83;58.83;96870.41;5109103;28;20015;-78
2022/01/19 07:08:08;;;;;;;24.08;10.90;;;;;;;-0.75;58.80;96869.16;5088694;28;20024;-79
2022/01/19 07:10:34;;;;;;;17.10;9.75;;;;;;;-0.68;58.34;96860.94;5107274;28;20028;-79
2022/01/19 07:13:00;;;;;;;16.13;8.50;;;;;;;-0.55;58.01;96848.88;5106563;28;20034;-78
2022/01/19 07:15:25;;;;;;;21.05;10.10;;;;;;;-0.42;57.86;96859.69;5089973;28;20482;-78
2022/01/19 07:17:51;;;;;;;21.95;10.45;;;;;;;-0.32;58.20;96854.00;5107475;28;20344;-78
2022/01/19 07:20:16;;;;;;;17.95;8.52;;;;;;;-0.14;57.59;96855.75;5106201;28;20413;-78
2022/01/19 07:22:42;;;;;;;19.58;9.13;;;;;;;0.11;56.96;96857.16;5107448;28;20054;-78
2022/01/19 07:25:08;;;;;;;21.17;9.48;;;;;;;0.24;56.95;96851.28;5107258;28;20467;-78
2022/01/19 07:27:34;;;;;;;20.75;8.10;;;;;;;0.40;56.26;96840.78;5108658;28;20085;-78
2022/01/19 07:29:59;;;;;;;15.25;8.05;;;;;;;0.53;55.64;96843.66;5106464;28;20019;-79
2022/01/19 07:32:29;;;;;;;15.77;7.53;;;;;;;0.65;55.76;96847.44;5106665;28;20065;-78
2022/01/19 07:34:55;;;;;;;15.70;7.07;;;;;;;0.71;55.80;96854.19;5090049;28;20051;-79
2022/01/19 07:37:20;;;;;;;20.15;8.23;;;;;;;0.88;55.29;96855.06;5107584;28;20031;-78
2022/01/19 07:39:45;;;;;;;14.93;7.60;;;;;;;0.95;55.12;96851.19;5107966;27;20032;-78
2022/01/19 07:42:11;;;;;;;21.60;8.90;;;;;;;0.68;55.51;96851.69;5106062;28;20020;-78
2022/01/19 07:44:39;;;;;;;16.00;8.15;;;;;;;0.72;55.96;96850.59;5107135;28;20027;-79
2022/01/19 07:47:05;;;;;;;14.57;8.48;;;;;;;0.70;56.11;96842.75;5089013;28;20433;-78
2022/01/19 07:49:30;;;;;;;17.30;9.00;;;;;;;0.81;55.67;96850.13;5106711;28;20036;-78
2022/01/19 07:51:56;;;;;;;17.60;8.82;;;;;;;0.96;55.63;96843.16;5106153;28;20333;-78
2022/01/19 07:54:21;;;;;;;20.73;9.30;;;;;;;1.10;54.60;96841.56;5105875;28;20024;-78
2022/01/19 07:56:47;;;;;;;21.60;9.45;;;;;;;1.05;55.33;96836.53;5106585;28;20483;-78
2022/01/19 07:59:13;;;;;;;17.20;8.68;;;;;;;1.13;55.02;96845.84;5106850;28;20051;-78
2022/01/19 08:01:38;;;;;;;14.90;7.80;;;;;;;1.27;54.81;96827.44;5106960;28;20456;-78
2022/01/19 08:04:04;;;;;;;16.17;8.23;;;;;;;1.44;54.68;96836.22;5107151;28;20035;-78
2022/01/19 08:06:29;;;;;;;17.35;7.82;;;;;;;1.63;53.74;96836.03;5106296;28;20020;-78
2022/01/19 08:08:55;;;;;;;12.32;7.32;;;;;;;1.64;53.33;96837.75;5105248;28;20024;-79
2022/01/19 08:11:20;;;;;;;19.50;7.78;;;;;;;1.45;53.87;96838.75;5088665;28;20035;-78
2022/01/19 08:13:46;;;;;;;12.75;7.25;;;;;;;1.38;53.77;96839.19;5105758;28;20024;-79
2022/01/19 08:16:11;;;;;;;14.25;7.28;;;;;;;1.35;53.89;96840.22;5105526;28;20458;-78
2022/01/19 08:18:36;;;;;;;20.70;8.77;;;;;;;0.97;55.08;96838.72;5088873;28;20072;-78
2022/01/19 08:21:02;;;;;;;16.17;7.25;;;;;;;1.19;54.80;96837.56;5105596;28;20019;-78
2022/01/19 08:23:27;;;;;;;16.33;7.55;;;;;;;1.14;55.24;96837.84;5107541;28;20020;-78
2022/01/19 08:25:53;;;;;;;17.25;6.85;;;;;;;0.92;55.50;96843.41;5106298;28;20034;-78
2022/01/19 08:28:20;;;;;;;14.65;7.60;;;;;;;0.91;54.88;96839.91;5107478;28;20020;-78
2022/01/19 08:30:46;;;;;;;12.85;7.25;;;;;;;0.86;54.90;96844.59;5105258;28;20470;-78
2022/01/19 08:33:11;;;;;;;16.13;7.30;;;;;;;1.25;54.58;96833.72;5105344;28;20030;-78
2022/01/19 08:35:37;;;;;;;15.75;6.72;;;;;;;1.39;52.95;96830.34;5106356;28;20031;-78
2022/01/19 08:38:02;;;;;;;15.40;7.03;;;;;;;1.45;52.46;96824.72;5106420;28;20031;-77
2022/01/19 08:40:30;;;;;;;18.80;6.88;;;;;;;1.38;52.81;96836.56;5105708;28;20024;-78
2022/01/19 08:42:55;;;;;;;13.23;7.28;;;;;;;1.48;52.34;96821.91;5088399;28;20028;-78
2022/01/19 08:45:21;;;;;;;14.13;5.97;;;;;;;1.28;51.33;96823.00;5089455;28;20084;-78
2022/01/19 08:47:47;;;;;;;18.65;6.82;;;;;;;1.20;52.43;96813.69;5087580;28;20570;-78
2022/01/19 08:50:13;;;;;;;13.50;6.15;;;;;;;1.09;52.25;96814.28;5107148;28;20019;-77
2022/01/19 08:52:38;;;;;;;12.73;5.75;;;;;;;0.93;52.43;96816.06;5105029;28;20035;-78
2022/01/19 08:55:04;;;;;;;13.88;6.10;;;;;;;0.96;52.76;96816.75;5106970;28;20023;-77
2022/01/19 08:57:30;;;;;;;12.20;6.20;;;;;;;0.70;53.55;96823.41;5106789;28;20632;-79
2022/01/19 08:59:55;;;;;;;14.43;6.22;;;;;;;0.91;53.34;96823.19;5104775;28;20032;-77
2022/01/19 09:02:21;;;;;;;14.63;6.40;;;;;;;1.05;53.19;96812.75;5089051;28;20034;-78
2022/01/19 09:04:46;;;;;;;13.63;6.95;;;;;;;1.03;53.41;96811.97;5105677;28;20028;-77
2022/01/19 09:07:12;;;;;;;11.32;6.28;;;;;;;1.17;53.17;96808.59;5105632;28;20023;-79
2022/01/19 09:09:37;;;;;;;15.75;6.20;;;;;;;1.02;52.58;96819.97;5104616;28;20050;-78
2022/01/19 09:12:03;;;;;;;13.38;6.07;;;;;;;0.92;52.77;96820.47;5105144;28;20478;-78
2022/01/19 09:14:30;;;;;;;14.57;6.18;;;;;;;0.91;52.64;96813.50;5105006;28;20413;-79
2022/01/19 09:16:56;;;;;;;13.75;6.53;;;;;;;1.16;53.07;96811.31;5106076;28;20418;-77
2022/01/19 09:19:21;;;;;;;12.90;6.35;;;;;;;0.93;52.20;96814.28;5105607;28;20480;-79
2022/01/19 09:21:48;;;;;;;11.30;6.63;;;;;;;0.95;51.94;96798.34;5104222;28;20112;-78
2022/01/19 09:24:13;;;;;;;14.73;6.75;;;;;;;1.02;51.78;96802.34;5088975;28;20034;-79
2022/01/19 09:26:38;;;;;;;12.00;6.00;;;;;;;1.40;51.40;96797.66;5104204;28;20417;-78
2022/01/19 09:29:04;;;;;;;13.63;6.75;;;;;;;1.50;51.71;96793.56;5106856;28;20024;-77
2022/01/19 09:31:29;;;;;;;10.15;5.57;;;;;;;1.22;49.68;96795.13;5105984;28;20024;-78
2022/01/19 09:34:06;;;;;;;13.70;6.90;;;;;;;1.13;50.83;96788.53;5108626;28;20024;-78
2022/01/19 09:36:34;;;;;;;13.98;6.15;;;;;;;1.25;49.97;96773.78;5109541;28;20048;-78
2022/01/19 09:38:59;;;;;;;10.82;5.63;;;;;;;1.18;49.70;96772.41;5110057;28;20106;-78
2022/01/19 09:41:25;;;;;;;15.23;6.28;;;;;;;1.25;50.19;96767.66;5111269;28;20022;-79
2022/01/19 09:43:50;;;;;;;11.93;6.55;;;;;;;1.25;50.52;96768.50;5114320;28;20023;-79
2022/01/19 09:46:16;;;;;;;10.07;6.03;;;;;;;1.29;49.94;96767.38;5120345;28;20023;-77
2022/01/19 09:48:41;;;;;;;13.10;5.60;;;;;;;1.33;48.71;96776.88;5084620;28;20024;-78
2022/01/19 09:51:35;;;;;;;;;;;;;;;;;;;;;
2022/01/19 09:54:47;;;;;;;12.52;6.22;;;;;;;1.34;49.88;96775.06;5091600;28;20429;-78
2022/01/19 09:57:12;;;;;;;12.18;7.15;;;;;;;1.39;50.39;96769.53;5086634;28;20048;-78
2022/01/19 10:00:13;;;;;;;13.07;7.30;;;;;;;1.39;50.46;96770.38;5070002;28;20458;-78
2022/01/19 10:03:16;;;;;;;16.42;7.88;;;;;;;1.67;49.16;96763.53;5087306;28;20078;-78
2022/01/19 10:05:57;;;;;;;9.77;5.88;;;;;;;1.82;48.67;96742.41;5086337;28;20036;-78
2022/01/19 10:08:27;;;;;;;9.77;6.15;;;;;;;1.84;48.70;96737.84;5071211;28;20047;-78
2022/01/19 10:11:10;;;;;;;10.95;6.30;;;;;;;1.89;49.18;96729.63;5086602;28;20439;-78
2022/01/19 10:19:18;;;;;;;15.45;6.75;;;;;;;1.85;48.61;96731.63;5086396;28;20063;-78
2022/01/19 10:22:14;;;;;;;14.10;7.20;;;;;;;1.84;49.36;96736.06;5069745;28;20095;-78
2022/01/19 10:25:08;;;;;;;14.20;7.40;;;;;;;1.60;49.00;96731.28;5087101;28;20529;-79
2022/01/19 10:27:41;;;;;;;13.02;6.63;;;;;;;1.44;50.08;96731.31;5106788;27;20043;-78
2022/01/19 10:30:06;;;;;;;11.70;6.40;;;;;;;1.47;50.20;96719.69;5090666;28;20055;-79
2022/01/19 10:32:40;;;;;;;14.68;6.78;;;;;;;1.56;49.80;96724.47;5109612;28;20020;-77
2022/01/19 10:35:37;;;;;;;17.30;7.07;;;;;;;1.59;48.80;96721.66;5108327;28;20054;-78
2022/01/19 10:38:11;;;;;;;15.88;7.15;;;;;;;1.60;48.91;96726.00;5109422;28;20031;-77
2022/01/19 10:40:37;;;;;;;14.60;6.40;;;;;;;1.55;48.72;96725.41;5108701;28;20091;-77
2022/01/19 10:43:24;;;;;;;10.35;6.10;;;;;;;1.54;48.65;96714.91;5106296;28;20478;-78
2022/01/19 10:45:49;;;;;;;15.40;6.45;;;;;;;1.62;49.48;96719.75;5109661;28;20032;-80
2022/01/19 10:48:38;;;;;;;11.23;6.35;;;;;;;1.68;48.60;96717.59;5073045;28;20019;-77
2022/01/19 10:51:15;;;;;;;10.93;6.45;;;;;;;1.67;49.28;96699.19;5107913;28;20024;-78
2022/01/19 10:53:42;;;;;;;11.52;6.25;;;;;;;1.71;49.28;96693.59;5107566;28;20447;-78
2022/01/19 10:56:28;;;;;;;15.48;6.72;;;;;;;1.63;48.51;96692.38;5090145;28;20418;-79
2022/01/19 10:59:00;;;;;;;11.00;6.85;;;;;;;1.72;48.81;96697.97;5109309;28;20104;-79
2022/01/19 11:01:52;;;;;;;18.52;6.90;;;;;;;1.78;49.00;96690.59;5090831;28;20506;-79
2022/01/19 11:04:25;;;;;;;12.43;6.07;;;;;;;1.83;48.40;96675.31;5107916;28;21139;-79
2022/01/19 11:06:54;;;;;;;;;;;;;;;1.87;48.86;96673.34;5090618;28;20023;-78
2022/01/19 11:09:24;;;;;;;8.95;5.88;;;;;;;1.75;48.32;96666.97;5089736;28;19911;-78
2022/01/19 11:11:50;;;;;;;11.48;6.28;;;;;;;1.77;48.55;96658.03;5107568;28;20027;-78
2022/01/19 11:14:18;;;;;;;14.68;6.57;;;;;;;1.84;48.06;96656.69;5106119;28;20054;-78
2022/01/19 11:16:44;;;;;;;10.85;6.22;;;;;;;1.90;48.13;96652.84;5108786;28;20032;-79
2022/01/19 11:19:10;;;;;;;12.02;6.90;;;;;;;1.94;48.06;96641.13;5089135;28;20478;-78
2022/01/19 11:21:44;;;;;;;14.60;6.90;;;;;;;1.98;47.39;96641.78;5106983;28;20034;-78
2022/01/19 11:24:48;;;;;;;11.85;6.18;;;;;;;2.05;48.04;96635.16;5090060;28;20111;-78
2022/01/19 11:27:13;;;;;;;14.38;6.57;;;;;;;2.10;47.84;96638.38;5023987;28;20033;-78
2022/01/19 11:29:40;;;;;;;17.67;6.85;;;;;;;2.20;48.03;96637.81;5088029;28;20089;-79
2022/01/19 11:32:19;;;;;;;14.77;6.75;;;;;;;2.28;47.94;96643.50;5089050;28;20066;-78
2022/01/19 11:34:50;;;;;;;13.15;6.75;;;;;;;2.26;47.84;96626.84;5090094;28;20032;-77
2022/01/19 11:37:40;;;;;;;12.38;6.10;;;;;;;2.30;46.60;96628.38;5106420;28;20083;-77
2022/01/19 11:40:07;;;;;;;11.93;6.10;;;;;;;2.27;46.42;96636.50;5105735;28;20035;-78
2022/01/19 11:42:33;;;;;;;12.00;5.53;;;;;;;2.16;46.93;96631.84;5107018;28;20035;-79
2022/01/19 11:44:58;;;;;;;13.90;6.50;;;;;;;2.27;47.34;96625.91;5107167;28;20480;-77
2022/01/19 11:47:25;;;;;;;9.40;5.72;;;;;;;2.29;46.53;96621.34;5106577;28;20035;-79
2022/01/19 11:49:54;;;;;;;12.70;6.20;;;;;;;2.28;47.03;96618.81;5072566;28;20168;-78
2022/01/19 11:52:22;;;;;;;9.82;6.03;;;;;;;2.42;47.50;96620.59;5107083;28;20026;-77
2022/01/19 11:54:48;;;;;;;11.90;5.72;;;;;;;2.55;47.02;96616.22;5089856;28;20027;-79
2022/01/19 11:57:33;;;;;;;12.85;6.75;;;;;;;2.65;46.87;96603.22;5106497;28;20474;-78
2022/01/19 12:00:07;;;;;;;12.43;5.88;;;;;;;2.74;46.86;96607.06;5105761;28;20043;-79
2022/01/19 12:02:43;;;;;;;14.77;5.82;;;;;;;2.80;46.44;96598.75;5106732;28;20107;-79
2022/01/19 12:05:24;;;;;;;12.85;6.20;;;;;;;2.94;46.86;96605.78;5105758;28;20523;-79
2022/01/19 12:07:52;;;;;;;11.00;6.10;;;;;;;3.00;45.96;96595.75;5089977;28;20020;-80
2022/01/19 12:10:38;;;;;;;15.93;6.10;;;;;;;2.98;45.96;96579.94;5106249;28;20034;-79
2022/01/19 12:16:19;;;;;;;12.48;6.15;;;;;;;3.08;45.52;96588.13;5091531;28;20497;-78
2022/01/19 12:19:20;;;;;;;17.17;6.85;;;;;;;3.10;45.97;96583.56;5106641;28;20028;-79
2022/01/19 12:22:02;;;;;;;9.93;6.13;;;;;;;3.08;45.49;96578.38;5052860;28;20028;-80
2022/01/19 12:24:29;;;;;;;12.73;5.90;;;;;;;3.14;45.77;96576.28;5106729;28;20028;-78
2022/01/19 12:26:54;;;;;;;15.00;7.28;;;;;;;3.22;45.62;96569.50;5105516;28;20023;-79
2022/01/19 12:29:37;;;;;;;14.65;7.13;;;;;;;3.29;45.40;96577.88;5106963;28;20015;-81
2022/01/19 12:32:17;;;;;;;12.75;6.13;;;;;;;3.40;45.45;96571.84;5106246;28;20032;-81
2022/01/19 12:34:46;;;;;;;16.05;7.28;;;;;;;3.42;44.96;96563.78;5106946;28;20054;-79
2022/01/19 12:37:12;;;;;;;14.68;6.82;;;;;;;3.30;44.70;96553.09;5088516;28;20490;-82
2022/01/19 12:39:40;;;;;;;12.55;7.07;;;;;;;3.40;45.01;96553.28;5071375;28;20524;-79
2022/01/19 12:42:14;;;;;;;12.30;6.40;;;;;;;3.47;44.51;96556.38;5107291;28;20034;-79
2022/01/19 12:44:53;;;;;;;18.45;7.68;;;;;;;3.57;44.67;96544.19;5105063;28;20490;-78
2022/01/19 12:47:24;;;;;;;10.18;6.95;;;;;;;3.63;44.44;96544.72;5107424;28;20088;-78
2022/01/19 12:50:08;;;;;;;17.05;6.90;;;;;;;3.68;44.13;96537.28;5106100;28;20107;-80
2022/01/19 12:52:55;;;;;;;12.80;6.80;;;;;;;3.71;43.98;96540.56;5106668;28;20107;-79
2022/01/19 12:55:22;;;;;;;10.77;6.93;;;;;;;3.79;44.02;96532.06;5092724;28;20387;-82
2022/01/19 12:57:47;;;;;;;13.85;6.07;;;;;;;3.74;43.69;96534.19;5105582;28;20027;-79
2022/01/19 13:00:15;;;;;;;11.02;6.35;;;;;;;3.81;42.88;96524.00;5106064;28;20084;-80
2022/01/19 13:02:40;;;;;;;12.63;6.88;;;;;;;3.85;43.12;96519.34;5104333;28;20020;-79
2022/01/19 13:05:07;;;;;;;11.95;6.20;;;;;;;3.91;43.77;96524.22;5107218;28;20035;-78
2022/01/19 13:07:35;;;;;;;11.25;6.32;;;;;;;3.94;43.68;96508.06;5107847;28;20023;-78
2022/01/19 13:12:50;;;;;;;11.63;6.35;;;;;;;4.03;43.63;96507.41;5110761;28;20493;-81
2022/01/19 13:15:17;;;;;;;10.38;6.05;;;;;;;4.02;43.57;96495.09;5108800;28;20030;-79
2022/01/19 13:17:44;;;;;;;11.00;6.18;;;;;;;4.08;43.33;96492.00;5110975;28;20127;-79
2022/01/19 13:20:28;;;;;;;16.73;6.90;;;;;;;4.17;42.68;96489.66;5108862;28;20032;-80
2022/01/19 13:22:54;;;;;;;12.02;6.30;;;;;;;4.20;42.98;96492.06;5075232;28;20091;-79